createdAt,value
2023-05-14T00:01:53.227Z,15.60
2023-05-14T00:04:20.183Z,15.60
2023-05-14T00:06:47.095Z,15.50
2023-05-14T00:09:13.984Z,15.50
2023-05-14T00:11:40.926Z,15.40
2023-05-14T00:14:07.813Z,15.40
2023-05-14T00:16:34.821Z,15.30
2023-05-14T00:19:01.847Z,15.30
2023-05-14T00:21:28.751Z,15.20
2023-05-14T00:23:55.688Z,15.20
2023-05-14T00:26:22.696Z,15.10
2023-05-14T00:28:49.812Z,15.10
2023-05-14T00:31:16.744Z,15.10
2023-05-14T00:33:43.662Z,15.00
2023-05-14T00:36:10.847Z,15.00
2023-05-14T00:38:37.770Z,15.00
2023-05-14T00:41:04.779Z,14.90
2023-05-14T00:43:33.181Z,14.90
2023-05-14T00:46:00.404Z,14.90
2023-05-14T00:48:27.342Z,14.80
2023-05-14T00:50:54.432Z,14.80
2023-05-14T00:53:21.626Z,14.70
2023-05-14T00:55:50.057Z,14.70
2023-05-14T00:58:18.061Z,14.60
2023-05-14T01:00:45.449Z,14.60
2023-05-14T01:03:12.436Z,14.60
2023-05-14T01:06:29.216Z,14.50
2023-05-14T01:09:09.175Z,14.50
2023-05-14T01:12:02.952Z,14.50
2023-05-14T01:14:59.626Z,14.50
2023-05-14T01:17:30.367Z,14.40
2023-05-14T01:19:58.148Z,14.40
2023-05-14T01:22:25.467Z,14.30
2023-05-14T01:24:52.352Z,14.30
2023-05-14T01:27:34.480Z,14.30
2023-05-14T01:30:35.483Z,14.30
2023-05-14T01:33:06.883Z,14.20
2023-05-14T01:35:34.033Z,14.20
2023-05-14T01:38:05.244Z,14.20
2023-05-14T01:40:33.908Z,14.10
2023-05-14T01:43:02.560Z,14.10
2023-05-14T01:45:31.073Z,14.10
2023-05-14T01:47:59.647Z,14.10
2023-05-14T01:50:26.617Z,14.00
2023-05-14T01:52:56.350Z,14.00
2023-05-14T01:55:26.966Z,14.00
2023-05-14T01:57:54.518Z,14.00
2023-05-14T02:00:23.931Z,14.00
2023-05-14T02:02:51.190Z,14.00
2023-05-14T02:05:18.210Z,13.90
2023-05-14T02:07:45.151Z,13.90
2023-05-14T02:10:12.048Z,13.90
2023-05-14T02:12:38.931Z,13.90
2023-05-14T02:15:06.560Z,13.80
2023-05-14T02:17:33.638Z,13.80
2023-05-14T02:20:00.712Z,13.80
2023-05-14T02:22:27.555Z,13.80
2023-05-14T02:24:54.410Z,13.80
2023-05-14T02:27:21.393Z,13.80
2023-05-14T02:29:48.253Z,13.80
2023-05-14T02:32:15.269Z,13.80
2023-05-14T02:34:42.134Z,13.80
2023-05-14T02:37:09.023Z,13.80
2023-05-14T02:39:35.889Z,13.80
2023-05-14T02:42:02.752Z,13.80
2023-05-14T02:44:31.662Z,13.80
2023-05-14T02:46:58.616Z,13.80
2023-05-14T02:49:25.563Z,13.80
2023-05-14T02:51:54.319Z,13.70
2023-05-14T02:54:21.313Z,13.70
2023-05-14T02:56:48.380Z,13.70
2023-05-14T02:59:15.281Z,13.60
2023-05-14T03:01:42.603Z,13.60
2023-05-14T03:04:10.052Z,13.50
2023-05-14T03:06:36.940Z,13.40
2023-05-14T03:09:03.872Z,13.40
2023-05-14T03:11:30.896Z,13.30
2023-05-14T03:13:57.814Z,13.20
2023-05-14T03:16:24.795Z,13.20
2023-05-14T03:18:51.706Z,13.10
2023-05-14T03:21:18.732Z,13.10
2023-05-14T03:23:45.724Z,13.10
2023-05-14T03:26:12.657Z,13.10
2023-05-14T03:28:40.799Z,13.00
2023-05-14T03:31:07.827Z,13.00
2023-05-14T03:33:34.781Z,13.00
2023-05-14T03:36:01.740Z,13.00
2023-05-14T03:38:28.635Z,13.00
2023-05-14T03:40:55.606Z,13.00
2023-05-14T03:43:22.494Z,13.10
2023-05-14T03:45:52.529Z,13.10
2023-05-14T03:48:20.516Z,13.10
2023-05-14T03:50:47.674Z,13.10
2023-05-14T03:53:14.679Z,13.10
2023-05-14T03:55:41.576Z,13.10
2023-05-14T03:58:14.148Z,13.10
2023-05-14T04:00:44.425Z,13.10
2023-05-14T04:03:11.818Z,13.10
2023-05-14T04:05:38.876Z,13.10
2023-05-14T04:08:06.159Z,13.20
2023-05-14T04:10:33.102Z,13.20
2023-05-14T04:13:00.799Z,13.20
2023-05-14T04:15:32.117Z,13.20
2023-05-14T04:17:59.089Z,13.30
2023-05-14T04:20:26.078Z,13.30
2023-05-14T04:22:54.088Z,13.30
2023-05-14T04:25:21.055Z,13.30
2023-05-14T04:27:47.948Z,13.30
2023-05-14T04:30:15.051Z,13.30
2023-05-14T04:32:41.997Z,13.40
2023-05-14T04:35:10.216Z,13.40
2023-05-14T04:37:37.260Z,13.40
2023-05-14T04:40:05.778Z,13.40
2023-05-14T04:42:32.700Z,13.50
2023-05-14T04:44:59.616Z,13.50
2023-05-14T04:47:26.652Z,13.50
2023-05-14T04:49:53.551Z,13.60
2023-05-14T04:52:20.472Z,13.60
2023-05-14T04:54:47.421Z,13.70
2023-05-14T04:57:14.394Z,13.70
2023-05-14T04:59:41.309Z,13.70
2023-05-14T05:02:08.383Z,13.80
2023-05-14T05:04:35.291Z,13.80
2023-05-14T05:07:02.166Z,13.90
2023-05-14T05:09:29.045Z,13.90
2023-05-14T05:11:56.056Z,13.90
2023-05-14T05:14:22.938Z,14.00
2023-05-14T05:16:50.716Z,14.10
2023-05-14T05:19:17.790Z,14.10
2023-05-14T05:21:44.735Z,14.20
2023-05-14T05:24:11.641Z,14.20
2023-05-14T05:26:38.518Z,14.20
2023-05-14T05:29:05.996Z,14.30
2023-05-14T05:31:33.068Z,14.30
2023-05-14T05:34:00.742Z,14.40
2023-05-14T05:36:27.647Z,14.40
2023-05-14T05:38:55.426Z,14.50
2023-05-14T05:41:22.533Z,14.50
2023-05-14T05:43:49.444Z,14.50
2023-05-14T05:46:16.438Z,14.60
2023-05-14T05:48:43.363Z,14.60
2023-05-14T05:51:10.296Z,14.70
2023-05-14T05:53:37.208Z,14.80
2023-05-14T05:56:04.139Z,15.00
2023-05-14T05:58:31.013Z,15.10
2023-05-14T06:00:58.227Z,15.20
2023-05-14T06:03:25.303Z,15.30
2023-05-14T06:05:52.709Z,15.40
2023-05-14T06:08:19.737Z,15.40
2023-05-14T06:10:47.672Z,15.60
2023-05-14T06:13:14.714Z,15.70
2023-05-14T06:15:41.672Z,15.80
2023-05-14T06:18:08.745Z,15.90
2023-05-14T06:20:35.735Z,16.10
2023-05-14T06:23:02.624Z,16.20
2023-05-14T06:25:29.560Z,16.40
2023-05-14T06:27:56.469Z,16.50
2023-05-14T06:30:23.656Z,16.60
2023-05-14T06:32:51.760Z,16.80
2023-05-14T06:35:19.215Z,16.90
2023-05-14T06:37:46.261Z,17.10
2023-05-14T06:40:15.652Z,17.20
2023-05-14T06:42:42.561Z,17.30
2023-05-14T06:45:09.768Z,17.40
2023-05-14T06:47:36.710Z,17.60
2023-05-14T06:50:03.870Z,17.70
2023-05-14T06:52:30.792Z,17.90
2023-05-14T06:54:57.671Z,18.00
2023-05-14T06:57:24.711Z,18.10
2023-05-14T06:59:51.621Z,18.30
2023-05-14T07:02:18.535Z,18.50
2023-05-14T07:04:45.699Z,18.70
2023-05-14T07:07:15.444Z,18.90
2023-05-14T07:09:42.748Z,19.00
2023-05-14T07:12:09.736Z,19.10
2023-05-14T07:14:36.653Z,19.30
2023-05-14T07:17:03.675Z,19.40
2023-05-14T07:19:30.677Z,19.60
2023-05-14T07:21:58.124Z,19.70
2023-05-14T07:24:25.016Z,19.90
2023-05-14T07:26:51.954Z,20.00
2023-05-14T07:29:18.841Z,20.20
2023-05-14T07:31:45.760Z,20.30
2023-05-14T07:34:12.861Z,20.50
2023-05-14T07:36:39.859Z,20.60
2023-05-14T07:39:06.758Z,20.70
2023-05-14T07:41:33.702Z,20.80
2023-05-14T07:44:00.682Z,20.90
2023-05-14T07:46:27.573Z,21.10
2023-05-14T07:48:54.495Z,21.20
2023-05-14T07:51:21.381Z,21.30
2023-05-14T07:53:48.266Z,21.50
2023-05-14T07:56:15.235Z,21.60
2023-05-14T07:58:42.166Z,21.70
2023-05-14T08:01:09.217Z,21.90
2023-05-14T08:03:36.242Z,21.90
2023-05-14T08:06:03.926Z,22.10
2023-05-14T08:08:30.980Z,22.20
2023-05-14T08:10:57.975Z,22.30
2023-05-14T08:13:24.899Z,22.50
2023-05-14T08:15:52.280Z,22.60
2023-05-14T08:18:19.173Z,22.70
2023-05-14T08:20:46.088Z,22.80
2023-05-14T08:23:13.052Z,23.00
2023-05-14T08:25:40.059Z,23.10
2023-05-14T08:28:07.584Z,23.20
2023-05-14T08:30:34.688Z,23.30
2023-05-14T08:33:21.113Z,23.40
2023-05-14T08:36:08.781Z,23.50
2023-05-14T08:38:35.719Z,23.70
2023-05-14T08:41:05.882Z,23.70
2023-05-14T08:44:15.027Z,23.80
2023-05-14T08:46:42.234Z,23.90
2023-05-14T08:49:43.011Z,24.00
2023-05-14T08:52:10.729Z,24.10
2023-05-14T08:54:38.225Z,24.20
2023-05-14T08:57:06.058Z,24.30
2023-05-14T08:59:32.963Z,24.40
2023-05-14T09:02:05.069Z,24.40
2023-05-14T09:04:32.840Z,24.50
2023-05-14T09:07:02.685Z,24.60
2023-05-14T09:09:30.749Z,24.60
2023-05-14T09:11:57.690Z,24.80
2023-05-14T09:14:24.592Z,24.90
2023-05-14T09:16:52.213Z,25.00
2023-05-14T09:19:19.899Z,25.10
2023-05-14T09:21:49.081Z,25.10
2023-05-14T09:24:21.418Z,25.20
2023-05-14T09:26:54.906Z,25.30
2023-05-14T09:29:21.940Z,25.30
2023-05-14T09:31:51.594Z,25.40
2023-05-14T09:34:30.512Z,25.50
2023-05-14T09:37:03.016Z,25.60
2023-05-14T09:39:31.626Z,25.70
2023-05-14T09:41:58.632Z,25.80
2023-05-14T09:44:26.073Z,25.90
2023-05-14T09:46:54.285Z,26.10
2023-05-14T09:49:21.623Z,26.20
2023-05-14T09:51:51.928Z,26.30
2023-05-14T09:54:18.908Z,26.40
2023-05-14T09:56:45.855Z,26.50
2023-05-14T09:59:12.810Z,26.50
2023-05-14T10:01:43.313Z,26.50
2023-05-14T10:04:11.195Z,26.60
2023-05-14T10:06:39.757Z,26.60
2023-05-14T10:09:13.023Z,26.60
2023-05-14T10:11:44.325Z,26.60
2023-05-14T10:14:21.029Z,26.60
2023-05-14T10:16:50.836Z,26.60
2023-05-14T10:19:20.815Z,26.70
2023-05-14T10:21:57.412Z,26.70
2023-05-14T10:24:26.000Z,26.80
2023-05-14T10:26:53.533Z,26.80
2023-05-14T10:29:20.724Z,26.70
2023-05-14T10:31:55.799Z,26.80
2023-05-14T10:34:43.826Z,26.80
2023-05-14T10:37:17.260Z,26.70
2023-05-14T10:39:58.245Z,26.60
2023-05-14T10:42:39.644Z,26.60
2023-05-14T10:45:08.745Z,26.50
2023-05-14T10:47:38.112Z,26.40
2023-05-14T10:50:11.139Z,26.40
2023-05-14T10:52:38.035Z,26.40
2023-05-14T10:55:10.777Z,26.50
2023-05-14T10:57:40.200Z,26.50
2023-05-14T11:00:08.946Z,26.60
2023-05-14T11:02:38.620Z,26.70
2023-05-14T11:05:13.768Z,26.80
2023-05-14T11:07:43.688Z,26.90
2023-05-14T11:10:19.265Z,26.90
2023-05-14T11:12:51.022Z,27.00
2023-05-14T11:15:23.461Z,27.00
2023-05-14T11:17:53.624Z,27.00
2023-05-14T11:20:21.441Z,27.00
2023-05-14T11:22:51.686Z,27.00
2023-05-14T11:25:18.925Z,27.00
2023-05-14T11:27:47.448Z,27.00
2023-05-14T11:30:21.758Z,27.00
2023-05-14T11:32:50.664Z,26.90
2023-05-14T11:35:18.501Z,26.90
2023-05-14T11:37:52.282Z,26.90
2023-05-14T11:40:19.338Z,26.90
2023-05-14T11:42:46.303Z,27.00
2023-05-14T11:45:23.646Z,27.00
2023-05-14T11:47:50.554Z,27.10
2023-05-14T11:50:17.467Z,27.20
2023-05-14T11:52:44.364Z,27.20
2023-05-14T11:55:12.732Z,27.30
2023-05-14T11:57:40.859Z,27.30
2023-05-14T12:00:16.720Z,27.30
2023-05-14T12:02:44.009Z,27.40
2023-05-14T12:05:13.610Z,27.40
2023-05-14T12:07:42.002Z,27.50
2023-05-14T12:10:12.953Z,27.50
2023-05-14T12:12:40.097Z,27.50
2023-05-14T12:15:14.329Z,27.50
2023-05-14T12:17:41.979Z,27.50
2023-05-14T12:20:11.140Z,27.50
2023-05-14T12:22:38.808Z,27.50
2023-05-14T12:25:14.773Z,27.60
2023-05-14T12:27:44.822Z,27.60
2023-05-14T12:30:21.273Z,27.70
2023-05-14T12:32:52.032Z,27.80
2023-05-14T12:35:20.582Z,27.90
2023-05-14T12:37:47.632Z,28.00
2023-05-14T12:40:14.814Z,28.10
2023-05-14T12:42:42.067Z,28.10
2023-05-14T12:45:09.577Z,28.10
2023-05-14T12:47:37.475Z,28.10
2023-05-14T12:50:06.080Z,28.00
2023-05-14T12:52:38.402Z,27.90
2023-05-14T12:55:09.268Z,27.70
2023-05-14T12:57:38.868Z,27.50
2023-05-14T13:00:08.436Z,27.30
2023-05-14T13:02:42.721Z,27.10
2023-05-14T13:05:11.615Z,26.90
2023-05-14T13:07:38.848Z,26.70
2023-05-14T13:10:06.739Z,26.50
2023-05-14T13:12:33.964Z,26.40
2023-05-14T13:15:00.908Z,26.20
2023-05-14T13:17:27.910Z,26.20
2023-05-14T13:19:54.920Z,26.00
2023-05-14T13:22:21.802Z,25.90
2023-05-14T13:24:48.679Z,25.80
2023-05-14T13:27:15.663Z,25.70
2023-05-14T13:29:42.593Z,25.60
2023-05-14T13:32:09.520Z,25.60
2023-05-14T13:34:36.481Z,25.50
2023-05-14T13:37:04.022Z,25.40
2023-05-14T13:39:31.016Z,25.30
2023-05-14T13:41:58.012Z,25.30
2023-05-14T13:44:25.103Z,25.20
2023-05-14T13:46:52.015Z,25.10
2023-05-14T13:49:18.982Z,25.10
2023-05-14T13:51:45.987Z,25.10
2023-05-14T13:54:12.853Z,25.00
2023-05-14T13:56:39.741Z,25.00
2023-05-14T13:59:06.677Z,25.00
2023-05-14T14:01:33.656Z,25.00
2023-05-14T14:04:00.610Z,25.00
2023-05-14T14:06:27.567Z,25.10
2023-05-14T14:08:54.512Z,25.00
2023-05-14T14:11:21.919Z,25.10
2023-05-14T14:13:48.864Z,25.10
2023-05-14T14:16:16.249Z,25.10
2023-05-14T14:18:43.437Z,25.20
2023-05-14T14:21:10.707Z,25.10
2023-05-14T14:23:37.587Z,25.10
2023-05-14T14:26:04.607Z,25.10
2023-05-14T14:28:31.571Z,25.00
2023-05-14T14:30:58.593Z,25.00
2023-05-14T14:33:25.827Z,25.00
2023-05-14T14:35:52.962Z,25.00
2023-05-14T14:38:19.887Z,25.00
2023-05-14T14:40:46.856Z,25.00
2023-05-14T14:43:13.728Z,25.00
2023-05-14T14:45:40.662Z,25.00
2023-05-14T14:48:33.794Z,25.00
2023-05-14T14:51:01.551Z,25.00
2023-05-14T14:53:28.481Z,25.00
2023-05-14T14:55:56.220Z,25.10
2023-05-14T14:58:23.785Z,25.00
2023-05-14T15:00:54.038Z,25.00
2023-05-14T15:03:21.877Z,25.00
2023-05-14T15:05:49.450Z,24.90
2023-05-14T15:08:16.427Z,24.90
2023-05-14T15:10:44.943Z,24.80
2023-05-14T15:13:12.809Z,24.80
2023-05-14T15:15:39.732Z,24.80
2023-05-14T15:18:06.695Z,24.80
2023-05-14T15:20:33.873Z,24.70
2023-05-14T15:23:00.785Z,24.70
2023-05-14T15:25:28.660Z,24.80
2023-05-14T15:27:55.537Z,24.80
2023-05-14T15:30:22.471Z,24.90
2023-05-14T15:32:49.948Z,24.90
2023-05-14T15:35:17.023Z,24.80
2023-05-14T15:37:45.111Z,24.90
2023-05-14T15:40:12.602Z,24.80
2023-05-14T15:42:43.878Z,24.90
2023-05-14T15:45:14.700Z,24.80
2023-05-14T15:47:42.034Z,24.80
2023-05-14T15:50:09.370Z,24.70
2023-05-14T15:52:36.562Z,24.70
2023-05-14T15:55:06.516Z,24.70
2023-05-14T15:57:33.938Z,24.70
2023-05-14T16:00:00.887Z,24.70
2023-05-14T16:02:30.477Z,24.70
2023-05-14T16:04:57.511Z,24.70
2023-05-14T16:07:24.450Z,24.80
2023-05-14T16:09:51.732Z,24.80
2023-05-14T16:12:18.717Z,24.90
2023-05-14T16:14:45.693Z,25.00
2023-05-14T16:17:12.704Z,25.00
2023-05-14T16:19:39.903Z,25.00
2023-05-14T16:22:06.881Z,25.00
2023-05-14T16:24:33.830Z,25.00
2023-05-14T16:27:00.855Z,24.90
2023-05-14T16:29:27.900Z,24.80
2023-05-14T16:31:55.041Z,24.80
2023-05-14T16:34:22.046Z,24.70
2023-05-14T16:36:49.017Z,24.60
2023-05-14T16:39:16.564Z,24.50
2023-05-14T16:41:43.474Z,24.40
2023-05-14T16:44:10.631Z,24.30
2023-05-14T16:46:37.862Z,24.20
2023-05-14T16:49:04.837Z,24.20
2023-05-14T16:51:31.773Z,24.10
2023-05-14T16:53:58.748Z,24.00
2023-05-14T16:56:26.491Z,24.00
2023-05-14T16:58:53.532Z,23.90
2023-05-14T17:01:20.638Z,23.80
2023-05-14T17:03:47.649Z,23.70
2023-05-14T17:06:14.556Z,23.70
2023-05-14T17:08:41.466Z,23.70
2023-05-14T17:11:08.375Z,23.70
2023-05-14T17:13:35.643Z,23.70
2023-05-14T17:16:02.640Z,23.70
2023-05-14T17:18:29.824Z,23.70
2023-05-14T17:20:56.891Z,23.60
2023-05-14T17:23:23.783Z,23.60
2023-05-14T17:25:50.750Z,23.60
2023-05-14T17:28:17.651Z,23.50
2023-05-14T17:30:44.551Z,23.50
2023-05-14T17:33:11.701Z,23.50
2023-05-14T17:35:38.734Z,23.50
2023-05-14T17:38:05.652Z,23.40
2023-05-14T17:40:33.423Z,23.40
2023-05-14T17:43:00.500Z,23.40
2023-05-14T17:45:29.454Z,23.30
2023-05-14T17:47:59.253Z,23.30
2023-05-14T17:50:26.270Z,23.30
2023-05-14T17:52:53.976Z,23.30
2023-05-14T17:55:21.356Z,23.30
2023-05-14T17:57:48.306Z,23.30
2023-05-14T18:00:15.524Z,23.30
2023-05-14T18:02:42.476Z,23.30
2023-05-14T18:05:09.653Z,23.30
2023-05-14T18:07:36.779Z,23.30
2023-05-14T18:10:04.473Z,23.30
2023-05-14T18:12:31.411Z,23.30
2023-05-14T18:14:58.306Z,23.20
2023-05-14T18:17:25.327Z,23.20
2023-05-14T18:19:52.258Z,23.20
2023-05-14T18:22:21.480Z,23.00
2023-05-14T18:24:48.596Z,23.00
2023-05-14T18:27:15.674Z,23.00
2023-05-14T18:29:43.333Z,22.90
2023-05-14T18:32:10.251Z,22.90
2023-05-14T18:34:37.155Z,22.80
2023-05-14T18:37:04.138Z,22.80
2023-05-14T18:39:31.067Z,22.80
2023-05-14T18:41:57.992Z,22.80
2023-05-14T18:44:24.894Z,22.70
2023-05-14T18:46:52.309Z,22.60
2023-05-14T18:49:19.212Z,22.60
2023-05-14T18:51:46.837Z,22.60
2023-05-14T18:54:13.724Z,22.50
2023-05-14T18:56:46.767Z,22.50
2023-05-14T18:59:14.474Z,22.40
2023-05-14T19:01:41.494Z,22.40
2023-05-14T19:04:08.583Z,22.30
2023-05-14T19:06:36.145Z,22.30
2023-05-14T19:09:04.280Z,22.20
2023-05-14T19:11:31.223Z,22.20
2023-05-14T19:13:58.137Z,22.10
2023-05-14T19:16:25.107Z,22.10
2023-05-14T19:18:52.330Z,22.00
2023-05-14T19:21:19.360Z,22.00
2023-05-14T19:23:46.404Z,21.90
2023-05-14T19:26:13.277Z,21.90
2023-05-14T19:28:40.390Z,21.80
2023-05-14T19:31:07.434Z,21.80
2023-05-14T19:33:34.372Z,21.70
2023-05-14T19:36:01.238Z,21.70
2023-05-14T19:38:28.140Z,21.70
2023-05-14T19:40:56.898Z,21.60
2023-05-14T19:43:25.597Z,21.60
2023-05-14T19:45:52.575Z,21.50
2023-05-14T19:48:19.638Z,21.60
2023-05-14T19:50:47.329Z,21.50
2023-05-14T19:53:14.629Z,21.50
2023-05-14T19:55:41.791Z,21.50
2023-05-14T19:58:08.909Z,21.40
2023-05-14T20:00:37.067Z,21.40
2023-05-14T20:03:05.758Z,21.30
2023-05-14T20:05:34.306Z,21.30
2023-05-14T20:08:01.265Z,21.30
2023-05-14T20:10:28.480Z,21.30
2023-05-14T20:12:55.591Z,21.20
2023-05-14T20:15:22.499Z,21.20
2023-05-14T20:17:49.466Z,21.20
2023-05-14T20:20:16.658Z,21.20
2023-05-14T20:22:44.079Z,21.20
2023-05-14T20:25:11.153Z,21.10
2023-05-14T20:27:38.254Z,21.10
2023-05-14T20:30:07.470Z,21.10
2023-05-14T20:32:34.585Z,21.10
2023-05-14T20:35:02.297Z,21.10
2023-05-14T20:37:30.470Z,21.00
2023-05-14T20:39:57.469Z,21.00
2023-05-14T20:42:25.800Z,21.00
2023-05-14T20:44:53.668Z,21.00
2023-05-14T20:47:24.166Z,21.00
2023-05-14T20:49:51.457Z,21.00
2023-05-14T20:52:18.922Z,21.00
2023-05-14T20:54:46.174Z,20.90
2023-05-14T20:57:17.829Z,20.90
2023-05-14T20:59:46.011Z,20.90
2023-05-14T21:02:13.039Z,20.90
2023-05-14T21:04:40.070Z,20.90
2023-05-14T21:07:07.346Z,20.90
2023-05-14T21:09:34.235Z,20.80
2023-05-14T21:12:01.091Z,20.80
2023-05-14T21:14:27.942Z,20.80
2023-05-14T21:16:54.836Z,20.80
2023-05-14T21:19:23.267Z,20.80
2023-05-14T21:21:50.338Z,20.80
2023-05-14T21:24:17.268Z,20.80
2023-05-14T21:26:44.149Z,20.70
2023-05-14T21:29:11.325Z,20.70
2023-05-14T21:31:38.286Z,20.70
2023-05-14T21:34:05.359Z,20.60
2023-05-14T21:36:32.293Z,20.60
2023-05-14T21:38:59.197Z,20.60
2023-05-14T21:41:26.222Z,20.60
2023-05-14T21:43:53.203Z,20.60
2023-05-14T21:46:20.090Z,20.60
2023-05-14T21:48:47.152Z,20.50
2023-05-14T21:51:14.121Z,20.50
2023-05-14T21:53:41.029Z,20.40
2023-05-14T21:56:08.285Z,20.40
2023-05-14T21:58:35.784Z,20.30
2023-05-14T22:01:02.766Z,20.20
2023-05-14T22:03:29.710Z,20.20
2023-05-14T22:05:56.958Z,20.20
2023-05-14T22:08:24.152Z,20.00
2023-05-14T22:10:51.050Z,20.00
2023-05-14T22:13:17.926Z,19.90
2023-05-14T22:18:12.822Z,19.90
2023-05-14T22:20:40.099Z,19.80
2023-05-14T22:23:07.142Z,19.80
2023-05-14T22:25:34.283Z,19.70
2023-05-14T22:28:01.197Z,19.70
2023-05-14T22:30:28.089Z,19.60
2023-05-14T22:32:54.977Z,19.60
2023-05-14T22:35:22.149Z,19.50
2023-05-14T22:37:49.109Z,19.50
2023-05-14T22:40:16.101Z,19.40
2023-05-14T22:42:43.023Z,19.30
2023-05-14T22:45:10.463Z,19.20
2023-05-14T22:47:38.459Z,19.20
2023-05-14T22:50:11.211Z,19.10
2023-05-14T22:52:39.246Z,19.10
2023-05-14T22:55:07.202Z,19.10
2023-05-14T22:57:34.566Z,19.00
2023-05-14T23:00:01.566Z,19.00
2023-05-14T23:02:28.545Z,19.00
2023-05-14T23:04:55.770Z,18.90
2023-05-14T23:07:22.870Z,18.90
2023-05-14T23:09:49.771Z,18.90
2023-05-14T23:12:16.731Z,18.90
2023-05-14T23:14:43.605Z,18.90
2023-05-14T23:17:10.513Z,18.90
2023-05-14T23:19:37.421Z,18.80
2023-05-14T23:22:04.465Z,18.80
2023-05-14T23:24:31.347Z,18.80
2023-05-14T23:26:58.243Z,18.70
2023-05-14T23:29:25.194Z,18.70
2023-05-14T23:31:52.145Z,18.70
2023-05-14T23:34:19.033Z,18.70
2023-05-14T23:36:46.028Z,18.70
2023-05-14T23:39:12.971Z,18.70
2023-05-14T23:41:39.861Z,18.70
2023-05-14T23:44:07.285Z,18.70
2023-05-14T23:46:34.336Z,18.70
2023-05-14T23:49:01.475Z,18.70
2023-05-14T23:51:28.426Z,18.70
2023-05-14T23:53:56.358Z,18.70
2023-05-14T23:56:30.184Z,18.70
2023-05-14T23:58:57.175Z,18.60
